Time;durP1;ratioP1;P1;durP2;ratioP2;P2;SDS_P1;SDS_P2;PMS_P1;PMS_P2;Temp;Humidity;BMP_temperature;BMP_pressure;BME280_temperature;BME280_humidity;BME280_pressure;Samples;Min_cycle;Max_cycle;Signal;HPM_P1;HPM_P2
2024/04/09 00:02:25;;;;;;;13.30;7.80;;;;;;;17.39;62.31;99696.70;103355;1269;99201;-76
2024/04/09 00:05:31;;;;;;;15.50;7.80;;;;;;;17.37;62.29;99695.32;101028;1269;1003145;-75
2024/04/09 00:08:32;;;;;;;11.00;7.80;;;;;;;17.34;62.30;99692.69;102402;1264;107794;-74
2024/04/09 00:11:32;;;;;;;11.50;7.90;;;;;;;17.32;62.48;99704.63;102528;1264;99058;-74
2024/04/09 00:14:34;;;;;;;12.80;7.60;;;;;;;17.31;62.55;99699.44;102438;1269;107527;-73
2024/04/09 00:17:44;;;;;;;12.10;7.70;;;;;;;17.29;62.68;99702.73;102449;1267;99195;-77
2024/04/09 00:20:47;;;;;;;11.20;7.40;;;;;;;17.24;62.93;99702.19;103982;1264;111485;-75
2024/04/09 00:23:48;;;;;;;12.70;7.40;;;;;;;17.19;63.03;99700.55;103981;1264;106451;-74
2024/04/09 00:26:49;;;;;;;11.90;7.60;;;;;;;17.15;63.12;99698.24;103586;1269;99723;-76
2024/04/09 00:29:50;;;;;;;11.70;7.50;;;;;;;17.10;63.35;99696.63;102662;1264;108118;-74
2024/04/09 00:32:51;;;;;;;16.90;7.60;;;;;;;17.07;63.45;99690.68;102590;1269;99219;-76
2024/04/09 00:35:52;;;;;;;13.70;8.50;;;;;;;17.01;63.91;99691.81;103212;1269;112487;-74
2024/04/09 00:38:56;;;;;;;10.80;7.80;;;;;;;16.96;64.05;99693.36;102568;1267;107611;-74
2024/04/09 00:41:57;;;;;;;16.10;8.20;;;;;;;16.89;64.21;99691.16;103995;1264;97715;-75
2024/04/09 00:44:58;;;;;;;16.40;7.80;;;;;;;16.84;64.36;99689.55;102651;1264;108059;-74
2024/04/09 00:48:00;;;;;;;13.00;7.70;;;;;;;16.80;64.40;99693.70;103985;1267;97365;-75
2024/04/09 00:51:01;;;;;;;12.80;7.50;;;;;;;16.76;64.55;99695.20;104011;1264;113661;-75
2024/04/09 00:54:03;;;;;;;15.70;8.60;;;;;;;16.72;64.72;99695.67;103960;1264;106740;-76
2024/04/09 00:57:05;;;;;;;12.20;7.90;;;;;;;16.70;64.85;99690.71;104008;1264;97660;-76
2024/04/09 01:00:07;;;;;;;12.60;9.00;;;;;;;16.67;64.85;99689.67;103084;1264;107701;-76
2024/04/09 01:03:08;;;;;;;19.60;10.50;;;;;;;16.64;65.06;99686.84;103738;1268;96902;-76
2024/04/09 01:06:09;;;;;;;16.90;10.00;;;;;;;16.61;65.32;99686.35;102647;1263;114115;-76
2024/04/09 01:09:10;;;;;;;16.90;9.70;;;;;;;16.57;65.34;99685.95;102529;1270;107225;-76
2024/04/09 01:12:11;;;;;;;14.50;9.20;;;;;;;16.53;65.44;99684.80;104023;1264;97425;-74
2024/04/09 01:15:13;;;;;;;15.60;9.40;;;;;;;16.50;65.62;99683.57;103525;1263;108087;-75
2024/04/09 01:18:14;;;;;;;13.60;8.70;;;;;;;16.46;65.81;99683.14;103454;1269;98291;-75
2024/04/09 01:21:15;;;;;;;13.40;9.00;;;;;;;16.41;65.96;99678.70;103744;1264;113511;-75
2024/04/09 01:24:17;;;;;;;14.40;8.30;;;;;;;16.39;65.96;99679.26;103314;1269;107200;-75
2024/04/09 01:27:18;;;;;;;15.50;8.90;;;;;;;16.36;66.16;99680.98;103654;1264;97831;-76
2024/04/09 01:30:21;;;;;;;16.80;8.70;;;;;;;16.33;66.20;99683.65;102826;1267;106938;-74
2024/04/09 01:33:22;;;;;;;13.40;8.70;;;;;;;16.30;66.36;99684.98;102654;1269;99176;-74
2024/04/09 01:36:23;;;;;;;13.40;8.30;;;;;;;16.30;66.37;99686.46;103966;1269;113469;-75
2024/04/09 01:39:26;;;;;;;13.80;8.30;;;;;;;16.27;66.47;99685.55;103973;1264;107135;-74
2024/04/09 01:42:27;;;;;;;13.80;8.50;;;;;;;16.26;66.67;99682.51;104048;1263;97471;-74
2024/04/09 01:45:29;;;;;;;14.60;8.70;;;;;;;16.24;66.74;99684.77;102948;1263;108873;-75
2024/04/09 01:48:32;;;;;;;12.80;7.70;;;;;;;16.21;66.92;99685.13;103218;1264;99221;-75
2024/04/09 01:51:34;;;;;;;11.30;7.70;;;;;;;16.19;67.32;99690.72;102654;1269;112950;-74
2024/04/09 01:54:34;;;;;;;11.80;8.10;;;;;;;16.16;67.13;99691.05;103966;1263;106990;-75
2024/04/09 01:57:37;;;;;;;15.00;8.40;;;;;;;16.13;67.17;99686.52;104018;1263;97476;-76
2024/04/09 02:00:38;;;;;;;15.20;8.20;;;;;;;16.10;67.31;99686.34;103732;1267;107949;-74
2024/04/09 02:03:39;;;;;;;11.80;8.20;;;;;;;16.07;67.55;99690.23;103820;1263;97144;-75
2024/04/09 02:06:40;;;;;;;12.20;8.30;;;;;;;16.05;67.70;99693.33;102687;1263;112393;-75
2024/04/09 02:09:41;;;;;;;12.90;8.40;;;;;;;16.02;67.80;99695.98;104035;1264;106529;-76
2024/04/09 02:12:42;;;;;;;14.30;8.10;;;;;;;15.97;67.82;99689.62;103844;1267;97479;-75
2024/04/09 02:15:43;;;;;;;16.20;8.70;;;;;;;15.96;68.08;99693.39;103978;1264;108479;-76
2024/04/09 02:18:44;;;;;;;12.50;7.80;;;;;;;15.91;68.24;99693.54;102345;1264;1002574;-74
2024/04/09 02:21:45;;;;;;;15.70;8.00;;;;;;;15.87;68.27;99694.27;102696;1264;112758;-74
2024/04/09 02:24:46;;;;;;;15.20;7.90;;;;;;;15.83;68.49;99692.09;104034;1263;107704;-77
2024/04/09 02:27:47;;;;;;;13.20;8.10;;;;;;;15.80;68.62;99691.05;103891;1264;97264;-76
2024/04/09 02:30:48;;;;;;;17.50;9.50;;;;;;;15.76;68.84;99692.17;104042;1263;107630;-75
2024/04/09 02:33:50;;;;;;;15.70;8.70;;;;;;;15.73;69.01;99692.90;103956;1264;97133;-76
2024/04/09 02:36:51;;;;;;;16.60;8.90;;;;;;;15.69;69.14;99695.23;103512;1264;112402;-75
2024/04/09 02:39:52;;;;;;;16.00;9.70;;;;;;;15.66;69.54;99699.33;102442;1264;1003058;-75
2024/04/09 02:42:56;;;;;;;15.70;10.70;;;;;;;15.61;69.80;99700.30;103279;1264;1002467;-74
2024/04/09 02:45:56;;;;;;;18.50;10.90;;;;;;;15.54;70.00;99700.70;104023;1264;106763;-75
2024/04/09 02:48:57;;;;;;;15.70;11.30;;;;;;;15.52;69.92;99703.10;103060;1267;99197;-76
2024/04/09 02:51:58;;;;;;;17.10;11.90;;;;;;;15.48;69.89;99699.67;103622;1264;112432;-76
2024/04/09 02:55:02;;;;;;;16.60;11.90;;;;;;;15.44;70.08;99706.73;102688;1270;108144;-74
2024/04/09 02:58:04;;;;;;;17.60;12.70;;;;;;;15.40;70.10;99708.52;104072;1264;97819;-75
2024/04/09 03:01:05;;;;;;;22.60;13.30;;;;;;;15.38;70.08;99711.66;104041;1263;106705;-75
2024/04/09 03:04:06;;;;;;;19.50;13.40;;;;;;;15.36;70.24;99710.41;103764;1264;97148;-74
2024/04/09 03:07:07;;;;;;;19.90;14.00;;;;;;;15.33;70.24;99712.17;103997;1263;112372;-75
2024/04/09 03:10:09;;;;;;;20.60;13.50;;;;;;;15.30;70.41;99711.81;102725;1270;107679;-77
2024/04/09 03:13:14;;;;;;;23.30;14.20;;;;;;;15.27;70.50;99717.05;103563;1264;99020;-77
2024/04/09 03:16:21;;;;;;;26.60;14.40;;;;;;;15.23;70.84;99719.73;104040;1264;106346;-76
2024/04/09 03:19:22;;;;;;;18.70;13.90;;;;;;;15.18;70.99;99718.83;104041;1264;97139;-74
2024/04/09 03:22:23;;;;;;;21.60;13.90;;;;;;;15.13;71.17;99722.82;104006;1264;111219;-75
2024/04/09 03:25:24;;;;;;;23.40;14.00;;;;;;;15.08;71.24;99727.29;103994;1264;106415;-75
2024/04/09 03:28:25;;;;;;;20.60;14.00;;;;;;;15.05;71.44;99725.18;102669;1264;99173;-75
2024/04/09 03:31:26;;;;;;;17.30;13.30;;;;;;;15.02;71.39;99722.21;103671;1264;106694;-75
2024/04/09 03:34:27;;;;;;;20.60;12.80;;;;;;;14.99;71.55;99721.88;102886;1263;99276;-76
2024/04/09 03:37:28;;;;;;;20.30;13.30;;;;;;;14.95;71.39;99719.98;103057;1267;113202;-75
2024/04/09 03:40:29;;;;;;;17.80;12.90;;;;;;;14.93;71.67;99720.15;102613;1266;109805;-75
2024/04/09 03:43:30;;;;;;;20.20;12.70;;;;;;;14.91;71.77;99718.70;103490;1264;99894;-76
2024/04/09 03:46:31;;;;;;;15.70;12.20;;;;;;;14.86;72.09;99717.17;102696;1264;108050;-75
2024/04/09 03:49:32;;;;;;;21.10;12.40;;;;;;;14.85;72.48;99719.03;102868;1264;99176;-75
2024/04/09 03:52:33;;;;;;;16.90;11.00;;;;;;;14.81;72.56;99723.83;103492;1263;112836;-76
2024/04/09 03:55:34;;;;;;;17.30;10.60;;;;;;;14.77;72.70;99716.35;104021;1264;107363;-76
2024/04/09 03:58:37;;;;;;;15.00;10.30;;;;;;;14.74;72.90;99719.33;103937;1263;97426;-76
2024/04/09 04:01:38;;;;;;;15.10;10.30;;;;;;;14.71;72.86;99717.69;104019;1264;108955;-76
2024/04/09 04:04:39;;;;;;;17.70;10.80;;;;;;;14.69;73.02;99715.37;103019;1269;99087;-76
2024/04/09 04:07:40;;;;;;;17.30;9.90;;;;;;;14.71;72.86;99715.63;102649;1264;111915;-76
2024/04/09 04:10:41;;;;;;;17.30;10.10;;;;;;;14.71;72.87;99712.45;102507;1263;107366;-76
2024/04/09 04:13:43;;;;;;;15.70;9.90;;;;;;;14.71;72.79;99717.39;103906;1264;97672;-77
2024/04/09 04:16:44;;;;;;;17.30;10.80;;;;;;;14.71;72.75;99718.23;103939;1266;106398;-79
2024/04/09 04:19:45;;;;;;;16.80;10.00;;;;;;;14.77;72.92;99719.50;103478;1264;98410;-76
2024/04/09 04:22:46;;;;;;;15.80;9.50;;;;;;;14.81;72.69;99720.66;101787;1264;1002999;-77
2024/04/09 04:25:47;;;;;;;17.90;9.50;;;;;;;14.85;72.61;99717.25;103953;1264;107034;-74
2024/04/09 04:28:49;;;;;;;13.20;9.60;;;;;;;14.92;72.47;99713.88;104013;1264;98794;-77
2024/04/09 04:31:52;;;;;;;14.00;8.90;;;;;;;15.00;72.36;99715.48;104014;1264;107228;-74
2024/04/09 04:34:52;;;;;;;14.00;8.50;;;;;;;15.11;71.99;99718.89;103568;1264;97250;-75
2024/04/09 04:37:53;;;;;;;14.50;8.80;;;;;;;15.25;71.54;99717.02;102850;1264;111716;-76
2024/04/09 04:40:54;;;;;;;12.90;8.60;;;;;;;15.33;71.06;99717.53;103238;1263;1002467;-75
2024/04/09 04:43:56;;;;;;;16.60;8.90;;;;;;;15.39;70.75;99717.86;104050;1264;98521;-76
2024/04/09 04:46:57;;;;;;;18.10;9.20;;;;;;;15.47;70.53;99719.52;104016;1264;107313;-79
2024/04/09 04:49:58;;;;;;;15.10;8.30;;;;;;;15.62;69.95;99722.81;103985;1264;97331;-80
2024/04/09 04:52:59;;;;;;;19.00;8.90;;;;;;;15.81;69.72;99725.52;103723;1264;112908;-79
2024/04/09 04:56:00;;;;;;;16.10;7.80;;;;;;;16.13;69.07;99723.86;102614;1264;108636;-79
2024/04/09 04:59:01;;;;;;;15.00;8.40;;;;;;;16.49;68.01;99722.59;102633;1264;99732;-76
2024/04/09 05:02:02;;;;;;;14.30;8.00;;;;;;;16.84;66.97;99724.71;102568;1264;106939;-80
2024/04/09 05:05:04;;;;;;;12.50;7.50;;;;;;;17.21;66.24;99719.95;102565;1269;99211;-77
2024/04/09 05:08:04;;;;;;;16.30;8.10;;;;;;;17.60;64.88;99717.40;103923;1267;111882;-77
2024/04/09 05:11:05;;;;;;;11.20;7.60;;;;;;;17.95;63.85;99717.77;103834;1266;108101;-75
2024/04/09 05:14:06;;;;;;;11.10;7.70;;;;;;;18.35;63.04;99720.37;103194;1269;99214;-74
2024/04/09 05:17:08;;;;;;;11.10;7.70;;;;;;;18.77;61.83;99721.21;102438;1267;106417;-74
2024/04/09 05:20:10;;;;;;;14.50;7.60;;;;;;;19.05;60.66;99717.64;102435;1270;99860;-73
2024/04/09 05:23:11;;;;;;;12.50;7.40;;;;;;;19.43;59.87;99713.00;95124;1267;114162;-75
2024/04/09 05:26:13;;;;;;;14.90;7.60;;;;;;;19.90;59.27;99708.99;102594;1267;99578;-75
2024/04/09 05:29:13;;;;;;;16.50;7.50;;;;;;;20.50;57.71;99710.50;102662;1270;108200;-76
2024/04/09 05:32:15;;;;;;;12.70;7.30;;;;;;;21.12;56.18;99710.48;102798;1266;99230;-76
2024/04/09 05:35:18;;;;;;;13.50;6.90;;;;;;;21.91;54.02;99707.95;102937;1267;112353;-76
2024/04/09 05:38:19;;;;;;;16.90;7.40;;;;;;;22.42;52.14;99711.04;102548;1269;107842;-77
2024/04/09 05:41:21;;;;;;;13.30;6.70;;;;;;;22.75;50.92;99717.19;102519;1270;99200;-76
2024/04/09 05:44:22;;;;;;;20.20;7.20;;;;;;;23.08;50.06;99712.98;102635;1267;108610;-81
2024/04/09 05:47:24;;;;;;;14.30;6.30;;;;;;;23.61;48.64;99710.98;102626;1267;97537;-77
2024/04/09 05:50:25;;;;;;;11.40;6.10;;;;;;;24.29;48.43;99710.35;102686;1266;112641;-81
2024/04/09 05:53:26;;;;;;;19.30;6.40;;;;;;;24.98;46.85;99707.08;102594;1267;107499;-80
2024/04/09 05:56:27;;;;;;;14.20;6.60;;;;;;;25.52;45.36;99709.74;102527;1267;99188;-79
2024/04/09 05:59:30;;;;;;;11.70;6.30;;;;;;;26.11;44.25;99699.83;103554;1266;108686;-80
2024/04/09 06:02:31;;;;;;;12.60;5.70;;;;;;;26.79;43.16;99712.86;102609;1269;99109;-81
2024/04/09 06:05:31;;;;;;;17.40;6.20;;;;;;;27.35;41.15;99709.90;102761;1267;112804;-80
2024/04/09 06:08:32;;;;;;;14.90;5.90;;;;;;;27.69;39.83;99708.86;102798;1267;107346;-81
2024/04/09 06:11:33;;;;;;;13.50;6.00;;;;;;;27.82;38.59;99706.32;102672;1267;99185;-66
2024/04/09 06:14:34;;;;;;;13.50;5.60;;;;;;;27.48;38.21;99707.23;102572;1267;108511;-66
2024/04/09 06:17:35;;;;;;;18.40;5.90;;;;;;;27.22;38.47;99701.55;102540;1267;99286;-65
2024/04/09 06:20:36;;;;;;;11.30;5.90;;;;;;;27.13;37.92;99707.55;102658;1267;115013;-65
2024/04/09 06:23:37;;;;;;;11.70;5.70;;;;;;;26.77;38.11;99712.56;102543;1268;107139;-63
2024/04/09 06:26:38;;;;;;;14.60;5.60;;;;;;;26.36;38.48;99711.73;102582;1267;99182;-63
2024/04/09 06:29:39;;;;;;;14.10;5.20;;;;;;;26.49;38.27;99714.70;102566;1269;107728;-63
2024/04/09 06:32:40;;;;;;;13.10;5.10;;;;;;;27.02;38.19;99712.82;102536;1269;99211;-62
2024/04/09 06:35:41;;;;;;;10.40;5.40;;;;;;;27.74;37.37;99707.71;102614;1267;112085;-62
2024/04/09 06:38:42;;;;;;;15.80;5.10;;;;;;;28.48;36.55;99706.91;102916;1269;108204;-63
2024/04/09 06:41:44;;;;;;;17.10;5.00;;;;;;;29.17;35.49;99710.51;103657;1266;97231;-62
2024/04/09 06:44:46;;;;;;;13.80;5.50;;;;;;;29.50;34.70;99707.31;102985;1264;106609;-62
2024/04/09 06:47:46;;;;;;;6.90;4.70;;;;;;;29.89;34.20;99705.27;102594;1266;99199;-62
2024/04/09 06:50:48;;;;;;;19.90;5.60;;;;;;;30.43;33.89;99711.70;102943;1267;112735;-62
2024/04/09 06:53:49;;;;;;;16.30;4.80;;;;;;;30.87;33.28;99707.38;102653;1267;107952;-62
2024/04/09 06:56:50;;;;;;;12.70;4.80;;;;;;;31.09;32.18;99710.70;102542;1269;138304;-62
2024/04/09 06:59:51;;;;;;;16.80;4.80;;;;;;;31.53;32.03;99706.75;103832;1267;107227;-63
2024/04/09 07:02:45;;;;;;;15.70;4.80;;;;;;;32.07;31.15;99707.64;103760;1267;138122;-63
2024/04/09 07:05:47;;;;;;;21.40;4.90;;;;;;;32.43;30.77;99704.25;103870;1267;105032;-63
2024/04/09 07:08:49;;;;;;;21.20;5.00;;;;;;;32.99;30.23;99704.85;103799;1264;138197;-63
2024/04/09 07:11:50;;;;;;;17.70;4.60;;;;;;;33.47;29.88;99699.23;104022;1264;97304;-63
2024/04/09 07:14:51;;;;;;;12.70;4.70;;;;;;;33.79;28.40;99698.20;102488;1264;138080;-63
2024/04/09 07:17:52;;;;;;;18.70;4.50;;;;;;;33.95;28.38;99701.41;102554;1269;99330;-62
2024/04/09 07:20:53;;;;;;;18.40;5.20;;;;;;;34.29;27.21;99705.61;103910;1264;138544;-63
2024/04/09 07:23:54;;;;;;;12.80;4.80;;;;;;;34.12;26.80;99701.52;103977;1264;100299;-64
2024/04/09 07:26:55;;;;;;;20.30;4.70;;;;;;;33.98;26.69;99703.70;103893;1264;138856;-64
2024/04/09 07:29:57;;;;;;;12.10;4.70;;;;;;;33.88;27.27;99701.86;104028;1263;100315;-63
2024/04/09 07:32:57;;;;;;;16.90;5.50;;;;;;;33.86;27.10;99701.70;102557;1266;138233;-64
2024/04/09 07:36:06;;;;;;;17.40;4.90;;;;;;;33.88;27.11;99699.27;102739;1264;104743;-63
2024/04/09 07:39:08;;;;;;;15.70;4.90;;;;;;;34.14;27.37;99696.71;102524;1264;138241;-64
2024/04/09 07:42:09;;;;;;;18.60;5.30;;;;;;;34.56;27.11;99700.70;102780;1267;99199;-65
2024/04/09 07:45:10;;;;;;;21.90;4.50;;;;;;;34.71;26.26;99697.99;102394;1264;138565;-63
2024/04/09 07:48:13;;;;;;;11.50;4.30;;;;;;;34.56;25.53;99694.98;102534;1264;99208;-64
2024/04/09 07:51:14;;;;;;;14.00;4.10;;;;;;;34.46;25.93;99694.73;102616;1267;138029;-62
2024/04/09 07:54:15;;;;;;;14.90;4.40;;;;;;;34.59;26.13;99695.41;102379;1264;100342;-60
2024/04/09 07:57:16;;;;;;;10.20;4.00;;;;;;;34.69;26.07;99693.27;102565;1264;138145;-62
2024/04/09 08:00:19;;;;;;;14.20;3.90;;;;;;;34.99;25.44;99693.77;102623;1269;100613;-62
2024/04/09 08:03:20;;;;;;;14.90;4.20;;;;;;;35.10;25.25;99700.02;102501;1264;99296;-62
2024/04/09 08:06:24;;;;;;;11.50;3.20;;;;;;;35.13;24.68;99701.85;102560;1265;105701;-63
2024/04/09 08:09:27;;;;;;;17.20;3.70;;;;;;;34.70;24.64;99699.04;102602;1269;101662;-63
2024/04/09 08:12:27;;;;;;;8.60;3.60;;;;;;;34.07;24.27;99696.32;102514;1267;99361;-61
2024/04/09 08:15:29;;;;;;;12.70;3.50;;;;;;;33.47;24.50;99695.98;102592;1269;100321;-61
2024/04/09 08:18:30;;;;;;;9.70;3.70;;;;;;;33.14;24.76;99691.85;102670;1269;99240;-61
2024/04/09 08:21:31;;;;;;;13.90;3.30;;;;;;;33.07;25.59;99691.70;102832;1264;104065;-61
2024/04/09 08:24:32;;;;;;;10.90;4.30;;;;;;;33.40;25.80;99687.55;102662;1265;100642;-64
2024/04/09 08:27:34;;;;;;;11.30;3.10;;;;;;;33.82;25.38;99689.02;102672;1264;99471;-63
2024/04/09 08:30:34;;;;;;;7.10;3.30;;;;;;;33.93;24.74;99694.61;102921;1264;100121;-63
2024/04/09 08:33:37;;;;;;;10.00;3.20;;;;;;;33.89;24.57;99689.95;102626;1270;99282;-63
2024/04/09 08:36:37;;;;;;;9.70;3.20;;;;;;;33.84;24.91;99686.20;102781;1264;104970;-64
2024/04/09 08:39:38;;;;;;;7.70;3.10;;;;;;;34.05;24.66;99680.98;102593;1269;109881;-61
2024/04/09 08:42:44;;;;;;;11.40;3.50;;;;;;;34.17;24.70;99686.59;102597;1263;99119;-64
2024/04/09 08:45:48;;;;;;;10.80;2.90;;;;;;;34.32;25.04;99680.77;103013;1264;99915;-65
2024/04/09 08:48:50;;;;;;;5.40;3.10;;;;;;;34.51;24.69;99683.27;103928;1264;97496;-63
2024/04/09 08:51:54;;;;;;;7.50;3.10;;;;;;;34.75;24.60;99682.91;103614;1264;103785;-67
2024/04/09 08:54:54;;;;;;;8.10;2.80;;;;;;;34.92;24.54;99679.64;102623;1264;100788;-65
2024/04/09 08:57:56;;;;;;;7.70;2.80;;;;;;;34.88;23.11;99683.54;102821;1267;99289;-65
2024/04/09 09:00:58;;;;;;;10.00;3.10;;;;;;;34.67;23.81;99677.84;102605;1268;100607;-64
2024/04/09 09:03:59;;;;;;;7.10;2.20;;;;;;;34.51;23.31;99681.74;102758;1264;99163;-63
2024/04/09 09:06:59;;;;;;;11.00;2.80;;;;;;;34.30;23.45;99682.52;103142;1264;105199;-64
2024/04/09 09:10:09;;;;;;;10.00;2.80;;;;;;;34.12;23.50;99680.09;102592;1266;110740;-63
2024/04/09 09:13:12;;;;;;;9.60;3.20;;;;;;;34.19;23.79;99677.25;102575;1264;99252;-61
2024/04/09 09:16:16;;;;;;;11.40;3.10;;;;;;;34.13;23.56;99680.48;103929;1264;100386;-61
2024/04/09 09:19:17;;;;;;;13.80;2.90;;;;;;;33.91;23.81;99674.13;103941;1263;97277;-66
2024/04/09 09:22:19;;;;;;;7.50;2.90;;;;;;;33.94;24.06;99672.13;104020;1264;105241;-67
2024/04/09 09:25:23;;;;;;;8.00;2.60;;;;;;;34.12;23.92;99672.71;103919;1264;99530;-65
2024/04/09 09:28:28;;;;;;;5.60;2.50;;;;;;;34.26;23.23;99677.41;103108;1264;99188;-64
2024/04/09 09:31:29;;;;;;;11.40;3.60;;;;;;;34.14;22.55;99673.31;102680;1266;100315;-67
2024/04/09 09:34:41;;;;;;;4.20;2.30;;;;;;;34.14;22.87;99666.63;102869;1264;99182;-66
2024/04/09 09:37:43;;;;;;;7.60;2.50;;;;;;;34.27;22.98;99664.16;102576;1264;114742;-68
2024/04/09 09:40:44;;;;;;;7.90;2.10;;;;;;;34.53;22.61;99668.98;102629;1264;100101;-62
2024/04/09 09:43:46;;;;;;;8.00;2.20;;;;;;;34.67;22.63;99663.57;102530;1269;99183;-61
2024/04/09 09:46:48;;;;;;;6.90;2.00;;;;;;;34.82;22.55;99660.16;102617;1264;100331;-61
2024/04/09 09:49:50;;;;;;;5.50;1.80;;;;;;;35.04;22.25;99659.32;102612;1264;99428;-61
2024/04/09 09:53:07;;;;;;;5.10;1.80;;;;;;;34.96;21.44;99658.02;102399;1264;105547;-61
2024/04/09 09:56:11;;;;;;;6.50;1.90;;;;;;;34.54;20.89;99663.94;102554;1265;103856;-64
2024/04/09 09:59:13;;;;;;;22.60;3.30;;;;;;;34.05;21.24;99659.27;102407;1264;99531;-62
2024/04/09 10:02:15;;;;;;;7.60;1.80;;;;;;;33.67;21.64;99652.06;103015;1264;100271;-63
2024/04/09 10:05:18;;;;;;;5.80;2.40;;;;;;;33.39;21.73;99645.35;102820;1265;99309;-64
2024/04/09 10:08:27;;;;;;;10.70;2.30;;;;;;;32.99;22.21;99649.13;102656;1264;105083;-65
2024/04/09 10:11:31;;;;;;;4.10;1.90;;;;;;;32.82;22.22;99644.89;102339;1264;102226;-63
2024/04/09 10:14:32;;;;;;;8.00;2.30;;;;;;;32.84;22.78;99640.86;102552;1264;138248;-64
2024/04/09 10:17:35;;;;;;;4.80;2.00;;;;;;;33.01;22.79;99632.29;102931;1264;111884;-65
2024/04/09 10:20:37;;;;;;;4.90;2.20;;;;;;;32.85;22.84;99634.41;102669;1264;138308;-62
2024/04/09 10:23:43;;;;;;;6.70;2.40;;;;;;;32.92;23.64;99625.23;102630;1263;104987;-62
2024/04/09 10:26:45;;;;;;;5.70;2.20;;;;;;;32.98;23.35;99622.32;102575;1264;138369;-63
2024/04/09 10:29:55;;;;;;;4.40;1.80;;;;;;;32.92;23.13;99623.50;102671;1264;99207;-61
2024/04/09 10:33:07;;;;;;;9.90;2.40;;;;;;;32.77;22.82;99624.89;102415;1264;138143;-63
2024/04/09 10:36:11;;;;;;;3.90;2.00;;;;;;;32.66;23.12;99623.39;102647;1269;99075;-62
2024/04/09 10:39:14;;;;;;;3.00;1.60;;;;;;;32.39;23.37;99622.60;102460;1264;138015;-62
2024/04/09 10:42:15;;;;;;;4.70;1.90;;;;;;;31.93;23.32;99621.17;103965;1264;100139;-64
2024/04/09 10:45:16;;;;;;;9.40;2.10;;;;;;;31.52;23.73;99614.19;103835;1264;139074;-64
2024/04/09 10:48:17;;;;;;;5.20;1.80;;;;;;;31.48;24.17;99611.27;103864;1264;107092;-63
2024/04/09 10:51:18;;;;;;;6.70;2.00;;;;;;;31.49;24.20;99605.02;103849;1264;138005;-64
2024/04/09 10:54:23;;;;;;;9.40;2.50;;;;;;;31.45;24.60;99606.45;102779;1264;113225;-68
2024/04/09 10:57:24;;;;;;;4.80;2.00;;;;;;;31.40;24.34;99606.31;102722;1264;138408;-69
2024/04/09 11:00:26;;;;;;;8.20;1.80;;;;;;;31.25;24.53;99603.35;102695;1264;99181;-68
2024/04/09 11:03:30;;;;;;;5.90;2.10;;;;;;;31.05;24.20;99599.50;102635;1264;138594;-68
2024/04/09 11:06:30;;;;;;;4.10;1.70;;;;;;;30.80;24.63;99601.39;103277;1267;99177;-69
2024/04/09 11:09:33;;;;;;;6.50;2.20;;;;;;;30.51;25.08;99595.63;102551;1267;137991;-69
2024/04/09 11:12:34;;;;;;;7.10;2.20;;;;;;;30.31;25.29;99600.40;102531;1267;107590;-71
2024/04/09 11:15:38;;;;;;;4.20;2.00;;;;;;;29.99;25.66;99595.99;102597;1267;138128;-73
2024/04/09 11:18:38;;;;;;;7.80;2.10;;;;;;;29.88;26.13;99589.36;102544;1267;107665;-73
2024/04/09 11:21:39;;;;;;;10.30;2.20;;;;;;;29.83;26.58;99587.74;102514;1266;138484;-77
2024/04/09 11:24:40;;;;;;;4.70;2.10;;;;;;;29.71;26.41;99586.15;102755;1267;112661;-79
2024/04/09 11:27:43;;;;;;;9.60;2.10;;;;;;;29.53;26.71;99583.23;102573;1270;138531;-79
2024/04/09 11:30:46;;;;;;;7.60;2.10;;;;;;;29.44;27.02;99584.59;102691;1267;99177;-72
2024/04/09 11:33:47;;;;;;;5.10;1.80;;;;;;;29.33;27.10;99582.16;102903;1267;138493;-73
2024/04/09 11:36:53;;;;;;;6.50;1.90;;;;;;;29.31;27.19;99573.02;102591;1267;100638;-69
2024/04/09 11:39:55;;;;;;;6.30;2.10;;;;;;;29.18;27.30;99569.61;102527;1267;137293;-72
2024/04/09 11:42:59;;;;;;;7.60;2.30;;;;;;;29.13;27.77;99571.45;102472;1267;108722;-69
2024/04/09 11:46:06;;;;;;;7.00;2.00;;;;;;;28.99;27.91;99577.51;102550;1267;138112;-70
2024/04/09 11:49:07;;;;;;;5.50;2.00;;;;;;;28.79;28.35;99563.35;102801;1267;108088;-74
2024/04/09 11:52:08;;;;;;;8.90;2.20;;;;;;;28.72;28.68;99556.85;102546;1270;138137;-72
2024/04/09 11:55:09;;;;;;;6.50;2.60;;;;;;;28.74;29.01;99554.38;102882;1267;112902;-78
2024/04/09 11:58:13;;;;;;;6.10;2.40;;;;;;;28.76;29.27;99568.22;102552;1267;138088;-73
2024/04/09 12:01:14;;;;;;;6.00;2.50;;;;;;;28.78;29.26;99553.30;102669;1267;99551;-76
2024/04/09 12:04:17;;;;;;;4.20;2.60;;;;;;;28.80;29.37;99539.12;102692;1269;138579;-73
2024/04/09 12:07:21;;;;;;;9.00;2.20;;;;;;;28.94;29.34;99535.52;102807;1270;99198;-74
2024/04/09 12:10:21;;;;;;;4.60;2.40;;;;;;;28.95;29.15;99539.42;102763;1264;136831;-73
2024/04/09 12:13:23;;;;;;;6.10;2.20;;;;;;;28.97;29.37;99530.27;102772;1267;106365;-73
2024/04/09 12:16:24;;;;;;;9.70;2.40;;;;;;;29.08;29.29;99534.68;102722;1270;137574;-72
2024/04/09 12:19:25;;;;;;;4.00;2.30;;;;;;;29.17;29.06;99531.41;104012;1264;106768;-72
2024/04/09 12:22:26;;;;;;;3.90;2.30;;;;;;;29.32;28.86;99533.42;103914;1265;137093;-67
2024/04/09 12:25:27;;;;;;;4.90;2.30;;;;;;;29.38;28.98;99523.00;103632;1264;113831;-67
2024/04/09 12:28:28;;;;;;;5.40;2.30;;;;;;;29.49;28.98;99525.54;102834;1266;138122;-67
2024/04/09 12:31:29;;;;;;;6.90;2.40;;;;;;;29.47;28.83;99519.05;102698;1264;99618;-67
2024/04/09 12:34:31;;;;;;;6.90;2.40;;;;;;;29.42;28.89;99521.06;102502;1269;138506;-68
2024/04/09 12:37:32;;;;;;;13.90;2.80;;;;;;;29.23;28.92;99518.20;102727;1269;99055;-68
2024/04/09 12:40:33;;;;;;;6.00;2.40;;;;;;;28.95;28.86;99515.83;102394;1268;138126;-68
2024/04/09 12:43:34;;;;;;;6.10;2.50;;;;;;;28.74;29.31;99512.86;102872;1264;107407;-68
2024/04/09 12:46:36;;;;;;;9.30;2.00;;;;;;;28.58;29.08;99521.20;102723;1264;137970;-67
2024/04/09 12:49:37;;;;;;;3.60;2.30;;;;;;;28.43;29.25;99517.25;102540;1264;108065;-67
2024/04/09 12:52:38;;;;;;;5.70;2.30;;;;;;;28.34;29.53;99514.27;102306;1270;139232;-67
2024/04/09 12:55:40;;;;;;;5.90;2.50;;;;;;;28.33;29.63;99503.09;102732;1264;113790;-68
2024/04/09 12:58:40;;;;;;;7.90;2.10;;;;;;;28.40;29.93;99500.79;102603;1267;137814;-67
2024/04/09 13:01:42;;;;;;;4.10;2.10;;;;;;;28.44;29.57;99503.06;102730;1264;100162;-68
2024/04/09 13:04:43;;;;;;;7.70;2.40;;;;;;;28.43;29.70;99506.07;102723;1265;137977;-68
2024/04/09 13:07:44;;;;;;;6.00;2.20;;;;;;;28.43;29.79;99504.04;102712;1264;99208;-68
2024/04/09 13:10:58;;;;;;;7.40;2.40;;;;;;;28.45;30.04;99504.66;103078;1264;137783;-68
2024/04/09 13:13:59;;;;;;;10.10;2.40;;;;;;;28.43;29.91;99499.05;102835;1267;108450;-68
2024/04/09 13:17:20;;;;;;;4.80;2.30;;;;;;;28.46;29.94;99491.54;102699;1267;99074;-68
2024/04/09 13:20:21;;;;;;;4.90;2.30;;;;;;;28.52;30.12;99485.77;103327;1264;107836;-69
2024/04/09 13:23:23;;;;;;;7.60;2.50;;;;;;;28.55;29.79;99505.47;102778;1269;99052;-69
2024/04/09 13:26:24;;;;;;;10.30;2.20;;;;;;;28.42;29.68;99506.30;102830;1265;112133;-68
2024/04/09 13:29:26;;;;;;;5.70;2.40;;;;;;;28.23;29.40;99502.79;103294;1264;107241;-67
2024/04/09 13:32:27;;;;;;;5.50;2.30;;;;;;;28.07;29.52;99499.13;102751;1264;99199;-67
2024/04/09 13:35:28;;;;;;;4.10;1.90;;;;;;;27.96;29.89;99491.90;102719;1264;108665;-67
2024/04/09 13:38:31;;;;;;;4.50;1.80;;;;;;;27.89;29.79;99494.34;102663;1270;100233;-66
2024/04/09 13:41:31;;;;;;;11.90;2.40;;;;;;;27.83;29.87;99485.36;102698;1265;111762;-67
2024/04/09 13:44:32;;;;;;;7.00;2.20;;;;;;;27.85;30.19;99480.98;102609;1264;107464;-67
2024/04/09 13:47:34;;;;;;;6.00;2.00;;;;;;;27.88;29.85;99487.74;102707;1263;99516;-68
2024/04/09 13:50:28;;;;;;;9.70;2.40;;;;;;;27.82;30.10;99484.04;102632;1265;107940;-68
2024/04/09 13:53:28;;;;;;;7.10;1.80;;;;;;;27.73;30.14;99483.00;103086;1266;97838;-69